Bango, Nevada Weather observations

Data are for 10 minute period ending at time listed.
 Day   Time    Ave.   Ave.  Ave.  Vector   Max.   Stn.    Total    Solar   Ave.  
  of    of     Air    Rel.  Wind   Wind    Wind   Baro.  Precip.   Rad.    Soil  
Year   Day     Temp.  Hum.  Speed  Dir.    Gust   Pres.                    Temp. 
2014   (PST)    F      %     mph   deg.    mph     mb.     in.     W/m2     F    
--------------------------------------------------------------------------------- 
  65    8:10   42.8    90    5.9    13      8.7   870.5    0.00     107     8.3  
  65    8:20   42.8    90    6.6    11      7.8   870.6    0.00      99     8.3  
  65    8:30   42.9    90    6.5    24      8.7   870.6    0.00     108     8.3  
  65    8:40   42.8    91    6.3    20      8.7   870.7    0.00     106     8.2  
  65    8:50   42.7    92    6.0    17      7.8   870.6    0.00     110     8.2  
  65    9:00   42.9    91    5.1    35      6.9   870.6    0.00     159     8.2  
  65    9:10   43.3    91    4.7    26      6.9   870.6    0.00     148     8.2  
  65    9:20   43.3    90    5.1    33      7.8   870.6    0.00     122     8.2  
  65    9:30   43.3    89    4.3    44      6.0   870.6    0.00     112     8.2  
  65    9:40   43.5    88    4.4    31      6.9   870.6    0.00     140     8.2  
  65    9:50   43.7    87    4.2    39      6.0   870.5    0.00     135     8.2  
  65   10:00   43.7    87    3.8    21      6.0   870.5    0.00     134     8.2  
  65   10:10   43.9    86    3.5    41      5.1   870.6    0.00     169     8.2  
  65   10:20   44.4    86    3.0    40      5.1   870.6    0.00     246     8.2  
  65   10:30   45.2    85    2.4    25      5.1   870.5    0.00     253     8.2  
  65   10:40   45.7    82    2.9    65      5.1   870.4    0.00     398     8.2  
  65   10:50   47.1    77    2.1    97      4.2   870.3    0.00     388     8.2  
  65   11:00   47.6    75    2.8    83      5.1   870.2    0.00     329     8.2  
  65   11:10   46.8    74    2.9    72      5.1   870.1    0.00     272     8.3  
  65   11:20   46.7    74    2.4   138      4.2   870.0    0.00     244     8.3  
  65   11:30   47.2    74    2.6   118      5.1   869.9    0.00     274     8.3  
  65   11:40   47.8    70    3.3    92      6.9   869.9    0.00     332     8.4  
  65   11:50   48.0    69    2.4   112      5.1   869.9    0.00     401     8.4  
  65   12:00   49.4    66    1.3   150      4.2   869.8    0.00     390     8.4  
  65   12:10   49.1    67    4.1   138      7.8   869.6    0.00     523     8.5  
  65   12:20   48.5    68    3.8   133      8.7   869.4    0.00     237     8.5  
  65   12:30   48.5    67    4.1   138      6.9   869.3    0.00     231     8.6  
  65   12:40   48.5    67    4.1   129      8.7   869.1    0.00     281     8.6  
  65   12:50   49.2    65    4.5   117      6.9   869.0    0.00     434     8.7  
  65   13:00   49.2    66    1.7   274      6.0   869.0    0.00     114     8.7  
  65   13:10   47.4    75    5.8   340     10.5   868.9    0.00     114     8.8  
  65   13:20   47.6    74    1.2   210      2.4   868.8    0.00     233     8.8  
  65   13:30   48.3    74    4.4   135      7.8   868.7    0.00     338     8.9  
  65   13:40   48.2    75    6.4   134      8.7   868.6    0.00     314     8.9  
  65   13:50   48.5    74    6.6   139      8.7   868.4    0.00     449     9.0  
  65   14:00   49.1    71    6.5   133      8.7   868.1    0.00     465     9.0  
  65   14:10   50.0    69    6.6   132      9.6   868.0    0.00     526     9.1  
  65   14:20   50.9    64    5.7   142      9.6   867.8    0.00     516     9.1  
  65   14:30   51.2    60    6.1   150     10.5   867.7    0.00     449     9.2  
  65   14:40   51.0    59    3.5   136      6.0   867.6    0.00     266     9.2  
  65   14:50   50.8    60    5.3   150      8.7   867.4    0.00     227     9.3  
  65   15:00   50.9    62    5.5   109      7.8   867.3    0.00     341     9.3  
  65   15:10   51.1    60    5.8   112      9.6   867.2    0.00     271     9.4  
  65   15:20   51.0    60    5.1   145      8.7   867.2    0.00     214     9.4  
  65   15:30   51.0    59    5.6   177     10.5   867.2    0.00     186     9.5  
  65   15:40   51.3    59    3.2   145      6.9   867.0    0.00     155     9.5  
  65   15:50   50.9    62    5.9   141      8.7   866.9    0.00     143     9.6  
  65   16:00   50.6    61    6.0   136      9.6   866.8    0.00     129     9.7  
  65   16:10   50.6    60    4.4   149      6.9   866.8    0.00     101     9.7  
  65   16:20   50.8    59    2.0   126      5.1   866.8    0.00      88     9.8  
  65   16:30   50.6    61    4.0   158      6.0   866.7    0.00      75     9.8  
  65   16:40   50.5    62    4.0   144      6.0   866.6    0.00      60     9.8  
  65   16:50   50.4    61    4.1   119      6.9   866.5    0.00      49     9.9  
  65   17:00   50.3    61    1.6    99      3.3   866.5    0.00      29     9.9  
  65   17:10   50.3    61    1.3   116      3.3   866.5    0.00      31    10.0  
  65   17:20   50.3    61    2.3   112      4.2   866.4    0.00      19    10.0  
  65   17:30   50.0    63    4.0   116      5.1   866.4    0.00      13    10.0  
  65   17:40   49.8    64    3.9   129      5.1   866.3    0.00       6    10.0  
  65   17:50   49.5    65    3.5   143      4.2   866.3    0.00       3    10.0  
  65   18:00   49.2    68    3.2   150      4.2   866.2    0.00       1    10.1  
  65   18:10   48.9    70    2.8   151      3.3   866.1    0.00       0    10.0  
  65   18:20   48.6    72    3.0   176      4.2   866.1    0.00       0    10.0  
  65   18:30   48.4    73    3.2   200      4.2   866.1    0.00       0    10.0  
  65   18:40   47.7    75    3.4   267      4.2   866.1    0.00       0    10.0  
  65   18:50   47.5    75    4.2   307      6.0   866.1    0.00       0    10.0  
  65   19:00   47.4    76    5.6   323      6.9   866.0    0.00       0    10.0  
  65   19:10   47.4    74    6.3   317      7.8   866.0    0.00       0    10.0  
  65   19:20   47.5    72    5.9   322      7.8   866.1    0.00       0    10.0  
  65   19:30   47.3    69    9.6   318     12.3   866.1    0.00       0     9.9  
  65   19:40   47.0    70   10.3   326     13.2   866.0    0.00       0     9.9  
  65   19:50   46.5    71   10.1   341     14.9   866.0    0.00       0     9.9  
  65   20:00   46.1    74    8.0   331     10.5   866.1    0.00       0     9.9  
  65   20:10   45.5    77    6.4   330      8.7   866.1    0.00       0     9.9  
  65   20:20   45.2    79    4.0   324      6.9   866.2    0.00       0     9.9  
  65   20:30   44.9    80    2.8   325      4.2   866.1    0.00       0     9.8  
  65   20:40   45.2    80    2.1   313      3.3   866.1    0.00       0     9.8  
  65   20:50   45.1    82    3.1   350      4.2   866.1    0.00       0     9.8  
  65   21:00   45.0    83    2.8    16      4.2   866.1    0.00       0     9.8  
  65   21:10   44.9    84    0.9    86      4.2   866.1    0.00       0     9.7  
  65   21:20   44.6    89    6.2   207      8.7   866.1    0.00       0     9.7  
  65   21:30   44.0    91    6.0   204      7.8   866.0    0.01       0     9.7  
  65   21:40   43.6    92    5.5   194      6.9   865.9    0.01       0     9.6  
  65   21:50   43.4    94    4.7   204      6.0   865.9    0.01       0     9.6  
  65   22:00   43.3    94    3.1   213      4.2   865.8    0.01       0     9.6  
  65   22:10   43.2    94    1.2   203      3.3   865.7    0.00       0     9.5  
  65   22:20   43.2    95    4.6   188      6.9   865.6    0.02       0     9.5  
  65   22:30   42.9    96    5.8   188      6.9   865.6    0.02       0     9.5  
  65   22:40   42.8    96    6.4   192      7.8   865.5    0.03       0     9.4  
  65   22:50   42.6    96    5.7   188      6.9   865.3    0.04       0     9.4  
  65   23:00   42.5    96    4.2   164      5.1   865.1    0.01       0     9.4  
  65   23:10   42.3    97    3.1   162      5.1   865.0    0.00       0     9.3  
  65   23:20   42.2    97    2.4   179      3.3   864.9    0.01       0     9.3  
  65   23:30   42.1    97    2.5   204      4.2   864.9    0.01       0     9.3  
  65   23:40   41.9    95    3.1   235      5.1   864.9    0.02       0     9.2  
  65   23:50   41.9    93    3.5   222      5.1   864.8    0.02       0     9.2  
  66    0:00   41.9    93    4.3   213      6.0   864.7    0.01       0     9.2  
  66    0:10   41.7    94    5.5   181      6.9   864.5    0.03       0     9.1  
  66    0:20   41.5    93    5.1   193      6.0   864.3    0.02       0     9.1  
  66    0:30   41.2    92    7.1   208      8.7   864.4    0.02       0     9.1  
  66    0:40   41.2    96    6.6   204      8.7   864.4    0.03       0     9.0  
  66    0:50   40.7    94    5.7   199      9.6   864.2    0.02       0     9.0  
  66    1:00   40.1    93    7.5   205      9.6   864.2    0.01       0     9.0  
  66    1:10   39.8    94    8.5   183     12.3   863.9    0.02       0     8.9  
  66    1:20   39.7    94   11.7   179     14.9   863.8    0.01       0     8.9  
  66    1:30   39.5    93   11.8   184     14.1   863.7    0.00       0     8.8  
  66    1:40   39.1    92   10.4   188     13.2   863.6    0.01       0     8.8  
  66    1:50   38.7    93   10.5   198     14.9   863.5    0.02       0     8.8  
  66    2:00   38.5    94    9.8   221     14.1   863.7    0.02       0     8.7  
  66    2:10   38.6    95    8.0   240     10.5   863.7    0.02       0     8.7  
  66    2:20   39.0    95    9.4   241     13.2   863.7    0.03       0     8.6  
  66    2:30   39.2    93    9.8   252     13.2   863.6    0.01       0     8.6  
  66    2:40   39.4    90    6.6   232     10.5   863.1    0.01       0     8.5  
  66    2:50   39.3    90    8.9   239     12.3   862.9    0.00       0     8.4  
  66    3:00   39.3    90   11.4   243     14.9   862.9    0.00       0     8.4  
  66    3:10   39.4    88   12.3   251     14.9   862.8    0.00       0     8.3  
  66    3:20   40.0    85   12.9   255     18.5   862.8    0.00       0     8.3  
  66    3:30   40.0    85   14.7   257     19.4   862.9    0.00       0     8.2  
  66    3:40   40.1    84   14.0   260     18.5   862.9    0.00       0     8.2  
  66    3:50   40.1    83   14.0   271     16.7   862.9    0.00       0     8.1  
  66    4:00   39.9    82   13.8   256     15.8   863.0    0.00       0     8.1  
  66    4:10   39.7    82   12.2   236     14.9   863.0    0.00       0     8.0  
  66    4:20   39.4    83   10.7   240     14.9   863.2    0.00       0     8.0  
  66    4:30   38.6    86    5.8   253      9.6   863.2    0.00       0     7.9  
  66    4:40   39.4    80   10.5   306     16.7   863.2    0.00       0     7.9  
  66    4:50   40.3    75   12.7   311     18.5   863.1    0.00       0     7.8  
  66    5:00   40.6    72   17.9   296     24.8   863.1    0.00       0     7.8  
  66    5:10   40.5    72   16.2   290     24.8   863.2    0.00       0     7.7  
  66    5:20   40.5    70   17.6   272     23.9   863.4    0.00       0     7.7  
  66    5:30   40.3    70   14.6   256     19.4   863.3    0.00       0     7.6  
  66    5:40   39.4    73   10.4   263     16.7   863.2    0.00       0     7.6  
  66    5:50   39.3    71   14.3   288     19.4   863.2    0.00       0     7.5  
  66    6:00   39.2    71   14.7   277     18.5   863.3    0.00       0     7.5  
  66    6:10   38.3    74   13.8   276     16.7   863.5    0.00       0     7.4  
  66    6:20   37.9    74   11.8   266     18.5   863.5    0.00       2     7.4  
  66    6:30   38.0    72   11.6   253     17.6   863.5    0.00       5     7.3  
  66    6:40   37.8    73   10.0   250     14.1   863.5    0.00      13     7.3  
  66    6:50   37.3    76    9.1   272     11.4   863.7    0.00      52     7.2  
  66    7:00   38.4    76   17.5   292     31.0   863.8    0.00     113     7.1  
  66    7:10   38.1    83   24.1   300     31.0   863.9    0.00     165     7.1  
  66    7:20   37.1    87   20.8   311     28.4   864.3    0.00     139     7.0  
  66    7:30   36.1    89   21.0   303     26.6   864.6    0.00     143     7.0  
  66    7:40   35.3    92   19.1   302     26.6   864.8    0.00     196     6.9  
  66    7:50   35.4    91   19.1   296     29.2   864.9    0.00     251     6.9  
  66    8:00   35.6    90   22.1   295     31.0   865.0    0.00     208     6.8  

Return to Garden Spring, Nevada graphs page.


Western Regional Climate Center,wrcc@dri.edu